createdAt,value
2023-05-10T00:00:40.362Z,13.72
2023-05-10T00:01:11.307Z,13.72
2023-05-10T00:01:42.256Z,13.72
2023-05-10T00:02:13.262Z,13.73
2023-05-10T00:02:43.747Z,13.75
2023-05-10T00:03:14.858Z,13.75
2023-05-10T00:03:44.693Z,13.73
2023-05-10T00:04:16.255Z,13.72
2023-05-10T00:04:47.169Z,13.71
2023-05-10T00:05:18.108Z,13.69
2023-05-10T00:05:49.036Z,13.68
2023-05-10T00:06:19.919Z,13.69
2023-05-10T00:06:50.834Z,13.69
2023-05-10T00:07:21.754Z,13.68
2023-05-10T00:07:52.670Z,13.68
2023-05-10T00:08:23.585Z,13.68
2023-05-10T00:08:54.496Z,13.66
2023-05-10T00:09:25.407Z,13.66
2023-05-10T00:09:54.909Z,13.66
2023-05-10T00:10:26.907Z,13.68
2023-05-10T00:10:57.805Z,13.66
2023-05-10T00:11:28.755Z,13.68
2023-05-10T00:11:59.670Z,13.65
2023-05-10T00:12:30.601Z,13.68
2023-05-10T00:13:01.553Z,13.66
2023-05-10T00:13:32.539Z,13.68
2023-05-10T00:14:03.435Z,13.66
2023-05-10T00:14:34.374Z,13.68
2023-05-10T00:15:05.308Z,13.66
2023-05-10T00:15:36.227Z,13.66
2023-05-10T00:16:07.167Z,13.68
2023-05-10T00:16:38.163Z,13.68
2023-05-10T00:17:09.080Z,13.68
2023-05-10T00:18:10.914Z,13.65
2023-05-10T00:18:41.841Z,13.63
2023-05-10T00:19:14.974Z,13.65
2023-05-10T00:19:43.365Z,13.66
2023-05-10T00:20:14.333Z,13.65
2023-05-10T00:20:44.853Z,13.65
2023-05-10T00:21:15.769Z,13.68
2023-05-10T00:21:46.725Z,13.68
2023-05-10T00:22:17.653Z,13.69
2023-05-10T00:22:48.576Z,13.68
2023-05-10T00:23:19.492Z,13.68
2023-05-10T00:23:50.414Z,13.68
2023-05-10T00:24:21.378Z,13.69
2023-05-10T00:24:50.883Z,13.69
2023-05-10T00:25:22.813Z,13.68
2023-05-10T00:25:53.777Z,13.68
2023-05-10T00:26:24.680Z,13.66
2023-05-10T00:26:55.586Z,13.68
2023-05-10T00:27:26.515Z,13.66
2023-05-10T00:27:57.429Z,13.66
2023-05-10T00:28:28.338Z,13.66
2023-05-10T00:28:59.256Z,13.65
2023-05-10T00:29:30.161Z,13.65
2023-05-10T00:30:01.152Z,13.65
2023-05-10T00:30:31.612Z,13.65
2023-05-10T00:31:02.530Z,13.66
2023-05-10T00:31:33.491Z,13.66
2023-05-10T00:32:04.484Z,13.63
2023-05-10T00:32:35.435Z,13.65
2023-05-10T00:33:06.385Z,13.65
2023-05-10T00:33:37.160Z,13.65
2023-05-10T00:34:08.087Z,13.63
2023-05-10T00:34:38.972Z,13.62
2023-05-10T00:35:09.870Z,13.63
2023-05-10T00:35:40.791Z,13.63
2023-05-10T00:36:11.690Z,13.62
2023-05-10T00:36:42.593Z,13.62
2023-05-10T00:37:13.502Z,13.63
2023-05-10T00:37:44.430Z,13.65
2023-05-10T00:38:16.473Z,13.65
2023-05-10T00:38:46.172Z,13.63
2023-05-10T00:39:17.102Z,13.65
2023-05-10T00:39:48.026Z,13.63
2023-05-10T00:40:19.194Z,13.62
2023-05-10T00:40:49.720Z,13.62
2023-05-10T00:41:20.695Z,13.59
2023-05-10T00:41:51.592Z,13.61
2023-05-10T00:42:22.537Z,13.59
2023-05-10T00:42:53.430Z,13.61
2023-05-10T00:43:24.347Z,13.59
2023-05-10T00:43:53.920Z,13.59
2023-05-10T00:44:25.858Z,13.57
2023-05-10T00:44:56.789Z,13.59
2023-05-10T00:45:27.696Z,13.57
2023-05-10T00:45:58.685Z,13.59
2023-05-10T00:46:29.744Z,13.59
2023-05-10T00:47:00.201Z,13.57
2023-05-10T00:47:31.233Z,13.59
2023-05-10T00:48:32.616Z,13.57
2023-05-10T00:49:03.506Z,13.57
2023-05-10T00:49:34.403Z,13.57
2023-05-10T00:50:05.337Z,13.57
2023-05-10T00:50:36.300Z,13.59
2023-05-10T00:51:07.201Z,13.59
2023-05-10T00:51:38.121Z,13.57
2023-05-10T00:52:09.025Z,13.57
2023-05-10T00:52:39.970Z,13.55
2023-05-10T00:53:10.928Z,13.57
2023-05-10T00:53:41.831Z,13.59
2023-05-10T00:54:12.775Z,13.59
2023-05-10T00:54:43.710Z,13.55
2023-05-10T00:55:14.599Z,13.57
2023-05-10T00:55:45.531Z,13.54
2023-05-10T00:56:16.473Z,13.54
2023-05-10T00:56:47.413Z,13.53
2023-05-10T00:57:18.313Z,13.53
2023-05-10T00:57:47.830Z,13.54
2023-05-10T00:58:19.763Z,13.55
2023-05-10T00:58:50.700Z,13.54
2023-05-10T00:59:21.641Z,13.51
2023-05-10T00:59:52.584Z,13.50
2023-05-10T01:00:24.526Z,13.48
2023-05-10T01:00:55.025Z,13.48
2023-05-10T01:01:24.954Z,13.50
2023-05-10T01:01:55.882Z,13.50
2023-05-10T01:02:26.901Z,13.48
2023-05-10T01:02:57.530Z,13.47
2023-05-10T01:03:28.061Z,13.47
2023-05-10T01:03:58.993Z,13.48
2023-05-10T01:04:59.775Z,13.47
2023-05-10T01:05:31.729Z,13.48
2023-05-10T01:06:02.674Z,13.48
2023-05-10T01:06:33.598Z,13.50
2023-05-10T01:07:04.565Z,13.50
2023-05-10T01:07:35.463Z,13.48
2023-05-10T01:08:06.384Z,13.48
2023-05-10T01:08:37.197Z,13.48
2023-05-10T01:09:08.126Z,13.48
2023-05-10T01:09:39.074Z,13.48
2023-05-10T01:10:09.981Z,13.48
2023-05-10T01:10:40.894Z,13.50
2023-05-10T01:11:11.844Z,13.48
2023-05-10T01:11:42.779Z,13.48
2023-05-10T01:12:13.741Z,13.47
2023-05-10T01:12:44.709Z,13.48
2023-05-10T01:13:15.619Z,13.48
2023-05-10T01:13:46.543Z,13.48
2023-05-10T01:14:17.457Z,13.50
2023-05-10T01:14:48.391Z,13.50
2023-05-10T01:15:19.306Z,13.50
2023-05-10T01:15:50.241Z,13.50
2023-05-10T01:16:21.153Z,13.48
2023-05-10T01:16:50.685Z,13.48
2023-05-10T01:17:22.667Z,13.48
2023-05-10T01:17:53.585Z,13.48
2023-05-10T01:18:54.121Z,13.48
2023-05-10T01:19:26.037Z,13.44
2023-05-10T01:19:55.564Z,13.46
2023-05-10T01:20:27.484Z,13.47
2023-05-10T01:20:58.388Z,13.47
2023-05-10T01:21:27.910Z,13.46
2023-05-10T01:21:59.834Z,13.44
2023-05-10T01:22:30.753Z,13.44
2023-05-10T01:23:01.667Z,13.43
2023-05-10T01:23:32.607Z,13.41
2023-05-10T01:24:03.498Z,13.41
2023-05-10T01:24:34.426Z,13.39
2023-05-10T01:25:03.942Z,13.39
2023-05-10T01:25:35.874Z,13.39
2023-05-10T01:26:06.767Z,13.39
2023-05-10T01:26:37.715Z,13.38
2023-05-10T01:27:08.598Z,13.38
2023-05-10T01:27:39.564Z,13.36
2023-05-10T01:28:10.484Z,13.35
2023-05-10T01:28:41.397Z,13.35
2023-05-10T01:29:12.332Z,13.36
2023-05-10T01:29:43.268Z,13.35
2023-05-10T01:30:16.152Z,13.32
2023-05-10T01:30:44.973Z,13.32
2023-05-10T01:31:15.961Z,13.31
2023-05-10T01:31:46.501Z,13.31
2023-05-10T01:32:16.981Z,13.29
2023-05-10T01:32:47.922Z,13.29
2023-05-10T01:33:18.875Z,13.29
2023-05-10T01:33:49.807Z,13.31
2023-05-10T01:34:20.698Z,13.32
2023-05-10T01:34:51.616Z,13.31
2023-05-10T01:35:22.540Z,13.29
2023-05-10T01:36:24.384Z,13.29
2023-05-10T01:36:55.272Z,13.31
2023-05-10T01:37:26.217Z,13.31
2023-05-10T01:37:55.734Z,13.31
2023-05-10T01:38:27.672Z,13.29
2023-05-10T01:38:57.193Z,13.27
2023-05-10T01:39:27.733Z,13.31
2023-05-10T01:39:59.663Z,13.29
2023-05-10T01:40:30.576Z,13.31
2023-05-10T01:41:01.501Z,13.31
2023-05-10T01:41:32.427Z,13.31
2023-05-10T01:42:03.318Z,13.32
2023-05-10T01:42:34.236Z,13.31
2023-05-10T01:43:03.797Z,13.31
2023-05-10T01:43:35.722Z,13.32
2023-05-10T01:44:06.629Z,13.35
2023-05-10T01:44:37.556Z,13.31
2023-05-10T01:45:08.444Z,13.35
2023-05-10T01:45:39.350Z,13.32
2023-05-10T01:46:10.278Z,13.35
2023-05-10T01:46:41.206Z,13.32
2023-05-10T01:47:12.131Z,13.35
2023-05-10T01:47:43.067Z,13.36
2023-05-10T01:48:13.979Z,13.35
2023-05-10T01:48:44.903Z,13.35
2023-05-10T01:49:15.836Z,13.32
2023-05-10T01:49:46.797Z,13.32
2023-05-10T01:50:18.009Z,13.32
2023-05-10T01:50:48.592Z,13.35
2023-05-10T01:51:19.499Z,13.32
2023-05-10T01:51:50.309Z,13.32
2023-05-10T01:52:21.215Z,13.32
2023-05-10T01:52:52.135Z,13.31
2023-05-10T01:53:53.959Z,13.28
2023-05-10T01:54:24.883Z,13.31
2023-05-10T01:54:55.831Z,13.32
2023-05-10T01:55:26.740Z,13.35
2023-05-10T01:55:57.673Z,13.32
2023-05-10T01:56:28.607Z,13.32
2023-05-10T01:56:58.103Z,13.32
2023-05-10T01:57:30.005Z,13.32
2023-05-10T01:58:00.954Z,13.29
2023-05-10T01:58:31.870Z,13.28
2023-05-10T01:59:02.797Z,13.28
2023-05-10T01:59:33.728Z,13.25
2023-05-10T02:00:03.236Z,13.27
2023-05-10T02:00:35.189Z,13.25
2023-05-10T02:01:06.157Z,13.24
2023-05-10T02:01:37.051Z,13.22
2023-05-10T02:02:07.963Z,13.24
2023-05-10T02:02:38.915Z,13.22
2023-05-10T02:03:09.933Z,13.25
2023-05-10T02:03:40.435Z,13.22
2023-05-10T02:04:11.478Z,13.22
2023-05-10T02:04:41.952Z,13.22
2023-05-10T02:05:12.874Z,13.21
2023-05-10T02:05:43.774Z,13.22
2023-05-10T02:06:45.631Z,13.21
2023-05-10T02:07:16.563Z,13.22
2023-05-10T02:07:47.451Z,13.22
2023-05-10T02:08:18.366Z,13.22
2023-05-10T02:08:50.033Z,13.21
2023-05-10T02:09:19.960Z,13.21
2023-05-10T02:09:51.914Z,13.22
2023-05-10T02:10:21.665Z,13.22
2023-05-10T02:10:52.559Z,13.24
2023-05-10T02:11:23.454Z,13.24
2023-05-10T02:11:54.378Z,13.24
2023-05-10T02:12:25.299Z,13.24
2023-05-10T02:12:56.302Z,13.24
2023-05-10T02:13:27.311Z,13.24
2023-05-10T02:13:58.070Z,13.24
2023-05-10T02:14:28.985Z,13.22
2023-05-10T02:14:59.907Z,13.24
2023-05-10T02:15:30.891Z,13.24
2023-05-10T02:16:01.353Z,13.21
2023-05-10T02:16:32.327Z,13.21
2023-05-10T02:17:03.268Z,13.21
2023-05-10T02:17:34.307Z,13.21
2023-05-10T02:18:03.888Z,13.17
2023-05-10T02:18:35.826Z,13.17
2023-05-10T02:19:06.752Z,13.19
2023-05-10T02:19:36.255Z,13.14
2023-05-10T02:20:08.184Z,13.16
2023-05-10T02:20:39.100Z,13.16
2023-05-10T02:21:10.013Z,13.14
2023-05-10T02:21:40.913Z,13.16
2023-05-10T02:22:11.821Z,13.16
2023-05-10T02:22:41.807Z,13.16
2023-05-10T02:23:13.741Z,13.16
2023-05-10T02:24:15.560Z,13.14
2023-05-10T02:24:46.495Z,13.14
2023-05-10T02:25:17.431Z,13.14
2023-05-10T02:25:48.345Z,13.14
2023-05-10T02:26:19.268Z,13.13
2023-05-10T02:26:50.185Z,13.10
2023-05-10T02:27:21.088Z,13.09
2023-05-10T02:27:52.025Z,13.09
2023-05-10T02:28:21.545Z,13.09
2023-05-10T02:28:53.436Z,13.09
2023-05-10T02:29:24.387Z,13.09
2023-05-10T02:29:55.282Z,13.09
2023-05-10T02:30:26.188Z,13.07
2023-05-10T02:30:57.104Z,13.07
2023-05-10T02:31:28.074Z,13.07
2023-05-10T02:31:59.037Z,13.09
2023-05-10T02:32:29.950Z,13.09
2023-05-10T02:32:59.652Z,13.07
2023-05-10T02:33:31.394Z,13.07
2023-05-10T02:34:02.346Z,13.04
2023-05-10T02:34:33.253Z,13.03
2023-05-10T02:35:04.166Z,13.01
2023-05-10T02:35:35.113Z,13.03
2023-05-10T02:36:06.020Z,13.03
2023-05-10T02:37:07.850Z,13.01
2023-05-10T02:37:38.774Z,13.03
2023-05-10T02:38:09.670Z,13.01
2023-05-10T02:38:40.572Z,13.03
2023-05-10T02:39:11.467Z,13.01
2023-05-10T02:39:42.441Z,13.04
2023-05-10T02:40:13.368Z,13.03
2023-05-10T02:40:44.293Z,13.06
2023-05-10T02:41:15.180Z,13.04
2023-05-10T02:41:46.076Z,13.03
2023-05-10T02:42:15.581Z,13.03
2023-05-10T02:42:47.527Z,13.03
2023-05-10T02:43:18.489Z,13.06
2023-05-10T02:43:49.397Z,13.03
2023-05-10T02:44:20.356Z,13.04
2023-05-10T02:44:51.293Z,13.06
2023-05-10T02:45:22.196Z,13.06
2023-05-10T02:45:53.204Z,13.06
2023-05-10T02:46:24.205Z,13.03
2023-05-10T02:46:54.622Z,13.04
2023-05-10T02:47:25.549Z,13.04
2023-05-10T02:47:55.214Z,13.03
2023-05-10T02:48:26.641Z,13.01
2023-05-10T02:48:57.559Z,13.03
2023-05-10T02:49:59.273Z,13.03
2023-05-10T02:50:30.195Z,13.03
2023-05-10T02:51:01.149Z,13.04
2023-05-10T02:51:30.668Z,13.04
2023-05-10T02:52:02.595Z,13.04
2023-05-10T02:52:33.516Z,13.04
2023-05-10T02:53:04.455Z,13.03
2023-05-10T02:53:35.381Z,13.03
2023-05-10T02:54:06.299Z,13.03
2023-05-10T02:54:37.221Z,13.01
2023-05-10T02:55:08.166Z,12.99
2023-05-10T02:55:39.106Z,13.01
2023-05-10T02:56:10.040Z,12.99
2023-05-10T02:56:40.937Z,12.99
2023-05-10T02:57:10.929Z,12.98
2023-05-10T02:57:42.829Z,12.98
2023-05-10T02:58:13.774Z,12.98
2023-05-10T02:58:44.680Z,12.98
2023-05-10T02:59:15.618Z,12.99
2023-05-10T02:59:46.543Z,12.98
2023-05-10T03:00:16.388Z,12.99
2023-05-10T03:00:47.971Z,12.96
2023-05-10T03:01:18.970Z,12.96
2023-05-10T03:01:49.953Z,12.96
2023-05-10T03:02:20.433Z,12.95
2023-05-10T03:02:51.384Z,12.94
2023-05-10T03:03:22.311Z,12.95
2023-05-10T03:03:51.818Z,12.96
2023-05-10T03:04:23.850Z,12.96
2023-05-10T03:04:54.339Z,12.96
2023-05-10T03:05:24.807Z,12.96
2023-05-10T03:05:55.752Z,12.96
2023-05-10T03:06:26.654Z,12.96
2023-05-10T03:07:28.490Z,12.98
2023-05-10T03:07:59.474Z,12.98
2023-05-10T03:08:30.418Z,12.99
2023-05-10T03:09:01.315Z,12.98
2023-05-10T03:09:32.305Z,12.98
2023-05-10T03:10:03.215Z,13.01
2023-05-10T03:10:34.117Z,13.01
2023-05-10T03:11:05.027Z,12.96
2023-05-10T03:11:34.565Z,12.98
2023-05-10T03:12:06.495Z,12.96
2023-05-10T03:12:37.408Z,12.96
2023-05-10T03:13:08.388Z,12.96
2023-05-10T03:13:38.855Z,12.96
2023-05-10T03:14:09.755Z,12.95
2023-05-10T03:14:40.688Z,12.94
2023-05-10T03:15:11.592Z,12.94
2023-05-10T03:15:42.518Z,12.95
2023-05-10T03:16:13.102Z,12.95
2023-05-10T03:16:45.046Z,12.95
2023-05-10T03:17:14.574Z,12.95
2023-05-10T03:17:45.420Z,12.92
2023-05-10T03:18:16.331Z,12.92
2023-05-10T03:18:47.264Z,12.92
2023-05-10T03:19:18.193Z,12.92
2023-05-10T03:20:20.060Z,12.92
2023-05-10T03:20:50.986Z,12.91
2023-05-10T03:21:21.906Z,12.92
2023-05-10T03:21:52.800Z,12.91
2023-05-10T03:22:23.681Z,12.91
2023-05-10T03:22:53.699Z,12.92
2023-05-10T03:23:25.628Z,12.91
2023-05-10T03:23:56.531Z,12.91
2023-05-10T03:24:27.446Z,12.92
2023-05-10T03:24:56.965Z,12.91
2023-05-10T03:25:28.438Z,12.94
2023-05-10T03:25:59.298Z,12.92
2023-05-10T03:26:30.174Z,12.92
2023-05-10T03:27:01.085Z,12.94
2023-05-10T03:27:32.001Z,12.92
2023-05-10T03:28:02.868Z,12.94
2023-05-10T03:28:33.778Z,12.92
2023-05-10T03:29:04.652Z,12.94
2023-05-10T03:29:35.515Z,12.94
2023-05-10T03:30:06.411Z,12.92
2023-05-10T03:30:37.268Z,12.91
2023-05-10T03:31:08.154Z,12.92
2023-05-10T03:31:39.072Z,12.91
2023-05-10T03:32:09.917Z,12.89
2023-05-10T03:32:40.798Z,12.91
2023-05-10T03:33:11.707Z,12.91
2023-05-10T03:33:42.566Z,12.91
2023-05-10T03:34:13.407Z,12.92
2023-05-10T03:34:44.326Z,12.91
2023-05-10T03:35:15.262Z,12.91
2023-05-10T03:35:46.145Z,12.91
2023-05-10T03:36:17.008Z,12.89
2023-05-10T03:36:47.853Z,12.89
2023-05-10T03:37:49.573Z,12.89
2023-05-10T03:38:19.152Z,12.92
2023-05-10T03:38:51.031Z,12.91
2023-05-10T03:39:21.889Z,12.91
2023-05-10T03:39:51.862Z,12.89
2023-05-10T03:40:23.748Z,12.89
2023-05-10T03:40:54.633Z,12.88
2023-05-10T03:41:25.489Z,12.89
2023-05-10T03:41:56.356Z,12.88
2023-05-10T03:42:27.226Z,12.87
2023-05-10T03:42:58.093Z,12.87
2023-05-10T03:43:28.989Z,12.85
2023-05-10T03:43:59.864Z,12.84
2023-05-10T03:44:30.734Z,12.84
2023-05-10T03:45:01.583Z,12.85
2023-05-10T03:45:32.463Z,12.85
2023-05-10T03:46:04.052Z,12.85
2023-05-10T03:46:34.019Z,12.85
2023-05-10T03:47:04.916Z,12.87
2023-05-10T03:47:35.795Z,12.87
2023-05-10T03:48:06.698Z,12.85
2023-05-10T03:48:37.641Z,12.85
2023-05-10T03:49:08.510Z,12.79
2023-05-10T03:49:39.092Z,12.79
2023-05-10T03:50:09.789Z,12.77
2023-05-10T03:50:40.622Z,12.76
2023-05-10T03:51:11.476Z,12.73
2023-05-10T03:51:42.359Z,12.73
2023-05-10T03:52:13.251Z,12.70
2023-05-10T03:52:44.120Z,12.70
2023-05-10T03:53:14.121Z,12.67
2023-05-10T03:53:45.991Z,12.69
2023-05-10T03:54:16.884Z,12.66
2023-05-10T03:54:48.867Z,12.66
2023-05-10T03:55:18.717Z,12.67
2023-05-10T03:55:49.561Z,12.66
2023-05-10T03:56:20.408Z,12.62
2023-05-10T03:56:50.425Z,12.63
2023-05-10T03:57:22.294Z,12.62
2023-05-10T03:57:53.134Z,12.63
2023-05-10T03:58:23.973Z,12.62
2023-05-10T03:58:54.812Z,12.62
2023-05-10T03:59:25.677Z,12.62
2023-05-10T03:59:56.517Z,12.62
2023-05-10T04:00:27.375Z,12.61
2023-05-10T04:00:58.236Z,12.62
2023-05-10T04:01:29.116Z,12.62
2023-05-10T04:01:59.073Z,12.62
2023-05-10T04:02:29.578Z,12.62
2023-05-10T04:03:01.081Z,12.62
2023-05-10T04:03:32.204Z,12.63
2023-05-10T04:04:02.650Z,12.63
2023-05-10T04:04:33.500Z,12.63
2023-05-10T04:05:04.362Z,12.63
2023-05-10T04:05:35.193Z,12.63
2023-05-10T04:06:06.073Z,12.62
2023-05-10T04:06:36.895Z,12.66
2023-05-10T04:07:07.774Z,12.63
2023-05-10T04:08:09.527Z,12.66
2023-05-10T04:08:40.291Z,12.63
2023-05-10T04:09:11.175Z,12.62
2023-05-10T04:09:42.027Z,12.62
2023-05-10T04:10:12.900Z,12.59
2023-05-10T04:10:43.757Z,12.59
2023-05-10T04:11:14.625Z,12.61
2023-05-10T04:11:45.523Z,12.62
2023-05-10T04:12:16.385Z,12.62
2023-05-10T04:12:47.314Z,12.63
2023-05-10T04:13:18.072Z,12.62
2023-05-10T04:13:48.931Z,12.63
2023-05-10T04:14:19.805Z,12.66
2023-05-10T04:14:50.662Z,12.62
2023-05-10T04:15:21.551Z,12.63
2023-05-10T04:15:51.469Z,12.62
2023-05-10T04:16:23.407Z,12.62
2023-05-10T04:16:54.169Z,12.61
2023-05-10T04:17:25.106Z,12.61
2023-05-10T04:17:55.975Z,12.61
2023-05-10T04:18:26.829Z,12.63
2023-05-10T04:18:57.713Z,12.62
2023-05-10T04:19:28.573Z,12.63
2023-05-10T04:19:59.402Z,12.66
2023-05-10T04:21:01.128Z,12.63
2023-05-10T04:21:31.070Z,12.66
2023-05-10T04:22:02.933Z,12.63
2023-05-10T04:22:32.891Z,12.67
2023-05-10T04:23:04.768Z,12.63
2023-05-10T04:23:35.633Z,12.63
2023-05-10T04:24:06.522Z,12.63
2023-05-10T04:24:37.388Z,12.63
2023-05-10T04:25:08.238Z,12.61
2023-05-10T04:25:39.153Z,12.61
2023-05-10T04:26:09.984Z,12.59
2023-05-10T04:26:40.853Z,12.59
2023-05-10T04:27:11.707Z,12.59
2023-05-10T04:27:42.552Z,12.58
2023-05-10T04:28:13.409Z,12.59
2023-05-10T04:28:46.284Z,12.58
2023-05-10T04:29:15.015Z,12.58
2023-05-10T04:29:45.885Z,12.58
2023-05-10T04:30:17.018Z,12.58
2023-05-10T04:30:48.110Z,12.59
2023-05-10T04:31:17.615Z,12.59
2023-05-10T04:31:49.467Z,12.61
2023-05-10T04:32:20.310Z,12.58
2023-05-10T04:32:51.246Z,12.59
2023-05-10T04:33:52.920Z,12.56
2023-05-10T04:34:23.789Z,12.55
2023-05-10T04:34:54.724Z,12.55
2023-05-10T04:35:25.223Z,12.56
2023-05-10T04:35:56.071Z,12.54
2023-05-10T04:36:29.070Z,12.54
2023-05-10T04:36:57.718Z,12.52
2023-05-10T04:37:28.571Z,12.49
2023-05-10T04:37:59.423Z,12.49
2023-05-10T04:38:30.244Z,12.49
2023-05-10T04:39:01.137Z,12.48
2023-05-10T04:39:31.992Z,12.46
2023-05-10T04:40:02.861Z,12.49
2023-05-10T04:40:33.723Z,12.48
2023-05-10T04:41:04.628Z,12.46
2023-05-10T04:41:35.537Z,12.48
2023-05-10T04:42:06.425Z,12.49
2023-05-10T04:42:36.226Z,12.46
2023-05-10T04:43:08.103Z,12.46
2023-05-10T04:43:38.999Z,12.48
2023-05-10T04:44:09.853Z,12.44
2023-05-10T04:44:40.758Z,12.46
2023-05-10T04:45:11.634Z,12.46
2023-05-10T04:45:42.492Z,12.46
2023-05-10T04:46:44.192Z,12.49
2023-05-10T04:47:15.068Z,12.49
2023-05-10T04:47:45.946Z,12.48
2023-05-10T04:48:16.857Z,12.49
2023-05-10T04:48:47.587Z,12.51
2023-05-10T04:49:18.462Z,12.51
2023-05-10T04:49:49.311Z,12.51
2023-05-10T04:50:20.151Z,12.52
2023-05-10T04:50:51.025Z,12.54
2023-05-10T04:51:21.887Z,12.54
2023-05-10T04:51:51.714Z,12.51
2023-05-10T04:52:23.475Z,12.52
2023-05-10T04:52:54.337Z,12.52
2023-05-10T04:53:25.192Z,12.54
2023-05-10T04:54:05.146Z,12.52
2023-05-10T04:54:26.786Z,12.54
2023-05-10T04:54:59.738Z,12.54
2023-05-10T04:55:28.409Z,12.54
2023-05-10T04:55:59.272Z,12.54
2023-05-10T04:56:30.147Z,12.54
2023-05-10T04:57:01.001Z,12.52
2023-05-10T04:57:31.842Z,12.52
2023-05-10T04:58:02.682Z,12.52
2023-05-10T04:58:32.488Z,12.54
2023-05-10T04:59:04.359Z,12.55
2023-05-10T04:59:35.249Z,12.55
2023-05-10T05:00:06.101Z,12.58
2023-05-10T05:00:36.959Z,12.55
2023-05-10T05:01:07.839Z,12.56
2023-05-10T05:01:38.738Z,12.58
2023-05-10T05:02:09.614Z,12.58
2023-05-10T05:02:40.580Z,12.59
2023-05-10T05:03:11.089Z,12.58
2023-05-10T05:03:41.635Z,12.59
2023-05-10T05:04:12.177Z,12.61
2023-05-10T05:04:43.039Z,12.61
2023-05-10T05:05:13.888Z,12.62
2023-05-10T05:05:44.761Z,12.59
2023-05-10T05:06:15.630Z,12.59
2023-05-10T05:06:46.511Z,12.61
2023-05-10T05:07:19.546Z,12.61
2023-05-10T05:07:48.113Z,12.59
2023-05-10T05:08:18.997Z,12.58
2023-05-10T05:08:49.842Z,12.58
2023-05-10T05:09:19.803Z,12.61
2023-05-10T05:09:51.561Z,12.62
2023-05-10T05:10:22.400Z,12.63
2023-05-10T05:10:53.323Z,12.66
2023-05-10T05:11:24.176Z,12.66
2023-05-10T05:11:54.914Z,12.66
2023-05-10T05:12:25.772Z,12.66
2023-05-10T05:12:56.690Z,12.67
2023-05-10T05:13:27.670Z,12.63
2023-05-10T05:13:57.217Z,12.63
2023-05-10T05:14:29.073Z,12.66
2023-05-10T05:14:59.964Z,12.63
2023-05-10T05:15:30.818Z,12.62
2023-05-10T05:16:01.668Z,12.62
2023-05-10T05:17:03.360Z,12.62
2023-05-10T05:17:33.347Z,12.61
2023-05-10T05:18:05.299Z,12.59
2023-05-10T05:18:36.194Z,12.59
2023-05-10T05:19:07.071Z,12.62
2023-05-10T05:19:37.944Z,12.63
2023-05-10T05:20:08.793Z,12.66
2023-05-10T05:20:38.761Z,12.69
2023-05-10T05:21:10.651Z,12.69
2023-05-10T05:21:40.609Z,12.69
2023-05-10T05:22:12.482Z,12.70
2023-05-10T05:22:43.449Z,12.73
2023-05-10T05:23:14.295Z,12.73
2023-05-10T05:23:44.287Z,12.70
2023-05-10T05:24:16.157Z,12.70
2023-05-10T05:24:47.013Z,12.70
2023-05-10T05:25:17.907Z,12.70
2023-05-10T05:25:48.763Z,12.69
2023-05-10T05:26:19.634Z,12.69
2023-05-10T05:26:50.489Z,12.69
2023-05-10T05:27:21.365Z,12.71
2023-05-10T05:27:52.242Z,12.70
2023-05-10T05:28:23.133Z,12.71
2023-05-10T05:28:53.987Z,12.70
2023-05-10T05:29:24.831Z,12.73
2023-05-10T05:29:55.719Z,12.73
2023-05-10T05:30:26.589Z,12.73
2023-05-10T05:30:57.435Z,12.73
2023-05-10T05:31:28.321Z,12.74
2023-05-10T05:31:59.212Z,12.74
2023-05-10T05:32:30.151Z,12.73
2023-05-10T05:33:01.184Z,12.71
2023-05-10T05:33:31.600Z,12.70
2023-05-10T05:34:02.498Z,12.73
2023-05-10T05:34:33.428Z,12.71
2023-05-10T05:35:04.259Z,12.73
2023-05-10T05:35:35.144Z,12.73
2023-05-10T05:36:06.067Z,12.73
2023-05-10T05:36:37.676Z,12.73
2023-05-10T05:37:07.572Z,12.74
2023-05-10T05:37:38.425Z,12.74
2023-05-10T05:38:08.395Z,12.76
2023-05-10T05:38:40.273Z,12.76
2023-05-10T05:39:11.133Z,12.76
2023-05-10T05:39:42.012Z,12.74
2023-05-10T05:40:12.850Z,12.73
2023-05-10T05:40:43.675Z,12.74
2023-05-10T05:41:13.633Z,12.76
2023-05-10T05:41:45.470Z,12.77
2023-05-10T05:42:46.252Z,12.74
2023-05-10T05:43:18.139Z,12.76
2023-05-10T05:43:49.000Z,12.76
2023-05-10T05:44:19.870Z,12.76
2023-05-10T05:44:50.754Z,12.76
2023-05-10T05:45:21.597Z,12.77
2023-05-10T05:45:52.461Z,12.77
2023-05-10T05:46:22.504Z,12.74
2023-05-10T05:46:53.903Z,12.76
2023-05-10T05:47:24.756Z,12.76
2023-05-10T05:47:55.689Z,12.74
2023-05-10T05:48:26.662Z,12.77
2023-05-10T05:48:56.198Z,12.77
2023-05-10T05:49:28.087Z,12.77
2023-05-10T05:49:59.004Z,12.74
2023-05-10T05:50:29.864Z,12.73
2023-05-10T05:51:00.737Z,12.74
2023-05-10T05:51:31.589Z,12.74
2023-05-10T05:52:02.462Z,12.74
2023-05-10T05:52:32.443Z,12.74
2023-05-10T05:53:03.306Z,12.71
2023-05-10T05:53:35.083Z,12.70
2023-05-10T05:54:05.968Z,12.70
2023-05-10T05:54:36.828Z,12.69
2023-05-10T05:55:38.563Z,12.70
2023-05-10T05:56:09.460Z,12.71
2023-05-10T05:56:40.315Z,12.73
2023-05-10T05:57:11.176Z,12.71
2023-05-10T05:57:42.055Z,12.74
2023-05-10T05:58:12.902Z,12.77
2023-05-10T05:58:43.755Z,12.77
2023-05-10T05:59:13.699Z,12.77
2023-05-10T05:59:45.554Z,12.79
2023-05-10T06:00:16.414Z,12.79
2023-05-10T06:00:47.298Z,12.79
2023-05-10T06:01:18.274Z,12.79
2023-05-10T06:01:49.167Z,12.80
2023-05-10T06:02:20.132Z,12.80
2023-05-10T06:02:50.609Z,12.81
2023-05-10T06:03:21.622Z,12.80
2023-05-10T06:03:53.495Z,12.81
2023-05-10T06:04:23.188Z,12.81
2023-05-10T06:04:53.669Z,12.84
2023-05-10T06:05:24.552Z,12.84
2023-05-10T06:05:55.400Z,12.85
2023-05-10T06:06:26.268Z,12.87
2023-05-10T06:06:57.124Z,12.85
2023-05-10T06:07:28.004Z,12.88
2023-05-10T06:08:29.740Z,12.88
2023-05-10T06:09:00.622Z,12.88
2023-05-10T06:09:31.500Z,12.88
2023-05-10T06:10:02.348Z,12.89
2023-05-10T06:10:33.253Z,12.88
2023-05-10T06:11:04.128Z,12.88
2023-05-10T06:11:34.958Z,12.88
2023-05-10T06:12:05.838Z,12.87
2023-05-10T06:12:36.702Z,12.88
2023-05-10T06:13:07.588Z,12.89
2023-05-10T06:13:38.489Z,12.89
2023-05-10T06:14:09.362Z,12.91
2023-05-10T06:14:40.227Z,12.91
2023-05-10T06:15:11.128Z,12.91
2023-05-10T06:15:41.968Z,12.89
2023-05-10T06:16:12.855Z,12.91
2023-05-10T06:16:43.786Z,12.91
2023-05-10T06:17:14.653Z,12.92
2023-05-10T06:17:44.246Z,12.92
2023-05-10T06:18:16.120Z,12.92
2023-05-10T06:18:46.973Z,12.94
2023-05-10T06:19:17.848Z,12.92
2023-05-10T06:19:48.731Z,12.92
2023-05-10T06:20:19.576Z,12.94
2023-05-10T06:21:21.276Z,12.94
2023-05-10T06:21:53.839Z,12.92
2023-05-10T06:22:22.841Z,12.91
2023-05-10T06:22:53.726Z,12.91
2023-05-10T06:23:24.592Z,12.92
2023-05-10T06:23:55.425Z,12.92
2023-05-10T06:24:26.290Z,12.91
2023-05-10T06:24:57.154Z,12.92
2023-05-10T06:25:28.003Z,12.94
2023-05-10T06:25:58.878Z,12.94
2023-05-10T06:26:29.731Z,12.95
2023-05-10T06:27:00.587Z,12.95
2023-05-10T06:27:32.535Z,12.95
2023-05-10T06:28:02.342Z,12.95
2023-05-10T06:28:33.227Z,12.95
2023-05-10T06:29:04.094Z,12.96
2023-05-10T06:29:34.977Z,12.98
2023-05-10T06:30:12.775Z,12.95
2023-05-10T06:30:36.579Z,12.96
2023-05-10T06:31:07.455Z,12.96
2023-05-10T06:31:38.398Z,12.98
2023-05-10T06:32:10.073Z,12.95
2023-05-10T06:32:39.972Z,12.95
2023-05-10T06:33:10.859Z,12.95
2023-05-10T06:34:12.460Z,12.98
2023-05-10T06:34:43.355Z,12.96
2023-05-10T06:35:14.265Z,12.96
2023-05-10T06:35:45.133Z,12.96
2023-05-10T06:36:16.011Z,12.95
2023-05-10T06:36:46.841Z,12.92
2023-05-10T06:37:17.696Z,12.92
2023-05-10T06:37:48.551Z,12.92
2023-05-10T06:38:19.404Z,12.94
2023-05-10T06:38:50.238Z,12.92
2023-05-10T06:39:21.098Z,12.94
2023-05-10T06:39:51.966Z,12.92
2023-05-10T06:40:22.860Z,12.96
2023-05-10T06:40:53.733Z,12.95
2023-05-10T06:41:24.941Z,12.98
2023-05-10T06:41:55.351Z,12.98
2023-05-10T06:42:26.185Z,13.01
2023-05-10T06:42:57.025Z,13.04
2023-05-10T06:43:27.913Z,13.06
2023-05-10T06:43:58.785Z,13.07
2023-05-10T06:44:29.643Z,13.07
2023-05-10T06:44:59.577Z,13.07
2023-05-10T06:45:31.462Z,13.06
2023-05-10T06:46:02.354Z,13.09
2023-05-10T06:46:31.906Z,13.09
2023-05-10T06:47:03.816Z,13.09
2023-05-10T06:47:36.532Z,13.13
2023-05-10T06:48:05.630Z,13.13
2023-05-10T06:48:35.276Z,13.13
2023-05-10T06:49:07.140Z,13.17
2023-05-10T06:49:37.971Z,13.19